Time;durP1;ratioP1;P1;durP2;ratioP2;P2;SDS_P1;SDS_P2;PMS_P1;PMS_P2;Temp;Humidity;BMP_temperature;BMP_pressure;BME280_temperature;BME280_humidity;BME280_pressure;Samples;Min_cycle;Max_cycle;Signal;HPM_P1;HPM_P2
2022/12/02 00:00:04;;;;;;;5.00;4.60;;;;;;;5.47;83.86;95632.50;4373650;32;20367;-62
2022/12/02 00:02:33;;;;;;;5.63;5.13;;;;;;;5.39;84.02;95631.16;4366371;32;20276;-62
2022/12/02 00:05:20;;;;;;;6.73;5.67;;;;;;;5.33;85.06;95634.78;4376641;32;20318;-62
2022/12/02 00:07:49;;;;;;;6.10;5.57;;;;;;;5.39;84.65;95628.53;4374895;32;20276;-62
2022/12/02 00:10:31;;;;;;;4.47;4.07;;;;;;;5.39;84.39;95625.09;4374052;32;22719;-61
2022/12/02 00:13:26;;;;;;;6.17;5.57;;;;;;;5.33;85.10;95626.09;4375471;32;20299;-62
2022/12/02 00:15:56;;;;;;;5.63;5.23;;;;;;;5.32;85.19;95620.06;4368624;32;20277;-62
2022/12/02 00:18:23;;;;;;;7.57;5.03;;;;;;;5.43;84.68;95615.62;4365343;32;20277;-62
2022/12/02 00:20:50;;;;;;;7.80;4.87;;;;;;;5.66;83.80;95617.09;4374154;32;20269;-62
2022/12/02 00:23:15;;;;;;;4.90;4.50;;;;;;;5.37;84.74;95619.31;4378574;32;20402;-62
2022/12/02 00:25:49;;;;;;;5.37;4.83;;;;;;;5.45;84.58;95611.72;4376936;32;20302;-62
2022/12/02 00:28:16;;;;;;;4.60;4.23;;;;;;;5.59;84.28;95609.44;4369792;32;20348;-62
2022/12/02 00:30:43;;;;;;;4.83;4.03;;;;;;;5.63;83.52;95614.97;4381296;32;20265;-63
2022/12/02 00:33:09;;;;;;;8.93;4.37;;;;;;;5.36;84.35;95612.47;4372878;32;20268;-63
2022/12/02 00:35:36;;;;;;;27.53;4.70;;;;;;;5.41;85.04;95613.25;4371130;32;20281;-62
2022/12/02 00:38:04;;;;;;;5.77;5.37;;;;;;;5.41;85.12;95608.00;4363492;32;20276;-62
2022/12/02 00:40:29;;;;;;;5.70;4.90;;;;;;;5.33;85.16;95611.13;4371185;32;20273;-62
2022/12/02 00:46:30;;;;;;;4.70;4.37;;;;;;;5.36;85.85;95600.09;4373191;32;20343;-63
2022/12/02 00:48:26;;;;;;;6.93;5.90;;;;;;;5.43;85.34;95603.28;4329956;32;20344;-62
2022/12/02 00:50:52;;;;;;;6.73;6.23;;;;;;;5.24;85.58;95604.72;4367137;32;20272;-62
2022/12/02 00:53:20;;;;;;;4.43;4.13;;;;;;;5.31;85.35;95597.44;4366981;32;20192;-62
2022/12/02 00:55:47;;;;;;;6.57;4.40;;;;;;;5.10;86.75;95590.44;4374074;32;20292;-62
2022/12/02 00:58:13;;;;;;;4.83;4.47;;;;;;;5.24;86.24;95590.78;4373430;32;20273;-62
2022/12/02 01:00:39;;;;;;;4.97;4.67;;;;;;;5.17;86.52;95598.91;4372870;32;20273;-63
2022/12/02 01:03:05;;;;;;;6.07;5.43;;;;;;;5.16;86.54;95597.31;4363254;32;20188;-62
2022/12/02 01:05:30;;;;;;;6.13;4.80;;;;;;;5.44;85.82;95602.25;4357440;32;20350;-63
2022/12/02 01:07:56;;;;;;;6.60;6.10;;;;;;;5.40;85.69;95597.75;4367551;32;20207;-63
2022/12/02 01:10:23;;;;;;;4.53;3.87;;;;;;;5.63;84.57;95593.91;4379191;32;20235;-62
2022/12/02 01:12:49;;;;;;;3.77;3.57;;;;;;;5.34;85.23;95594.28;4373860;32;20193;-63
2022/12/02 01:15:15;;;;;;;5.63;5.23;;;;;;;5.49;85.30;95597.00;4352598;32;20457;-62
2022/12/02 01:17:43;;;;;;;5.27;4.90;;;;;;;5.65;84.15;95594.47;4344585;32;20324;-63
2022/12/02 01:20:12;;;;;;;7.20;5.40;;;;;;;5.51;84.42;95597.56;4358377;32;20329;-62
2022/12/02 01:22:39;;;;;;;6.70;5.43;;;;;;;5.56;84.59;95590.75;4348945;32;20332;-63
2022/12/02 01:25:06;;;;;;;4.43;4.10;;;;;;;5.73;83.75;95596.63;4355883;32;20345;-62
2022/12/02 01:27:31;;;;;;;4.23;3.93;;;;;;;5.60;84.20;95590.00;4342573;32;20276;-62
2022/12/02 01:29:57;;;;;;;8.50;4.90;;;;;;;5.49;84.38;95591.75;4344561;32;20302;-62
2022/12/02 01:32:23;;;;;;;5.93;4.13;;;;;;;5.20;85.52;95587.87;4359713;32;20185;-62
2022/12/02 01:34:50;;;;;;;6.50;5.90;;;;;;;5.04;86.71;95586.97;4337598;32;20189;-63
2022/12/02 01:37:15;;;;;;;4.40;4.10;;;;;;;5.01;86.93;95592.72;4344095;32;20409;-63
2022/12/02 01:39:41;;;;;;;7.40;5.60;;;;;;;5.09;87.12;95583.59;4336259;32;20317;-62
2022/12/02 01:42:09;;;;;;;6.80;6.10;;;;;;;5.41;85.35;95580.91;4354740;32;20203;-62
2022/12/02 01:44:36;;;;;;;4.67;4.37;;;;;;;5.51;84.58;95571.25;4358839;32;20307;-63
2022/12/02 01:47:02;;;;;;;4.00;3.70;;;;;;;5.42;84.55;95575.38;4346614;32;20300;-62
2022/12/02 01:49:28;;;;;;;4.87;4.53;;;;;;;5.29;85.32;95578.47;4339291;32;20282;-62
2022/12/02 01:51:54;;;;;;;5.53;5.07;;;;;;;5.40;85.55;95577.47;4347620;32;20189;-63
2022/12/02 01:54:22;;;;;;;5.13;4.83;;;;;;;5.33;85.49;95573.50;4355949;32;20185;-62
2022/12/02 01:56:49;;;;;;;4.43;4.13;;;;;;;5.33;85.71;95579.56;4359847;32;20257;-62
2022/12/02 01:59:16;;;;;;;6.63;5.57;;;;;;;5.45;85.30;95580.16;4359771;32;20290;-62
2022/12/02 02:01:42;;;;;;;4.23;3.97;;;;;;;5.30;85.83;95574.00;4337025;32;20297;-62
2022/12/02 02:04:09;;;;;;;5.63;5.30;;;;;;;5.14;86.17;95573.91;4366080;32;20429;-62
2022/12/02 02:06:43;;;;;;;5.07;4.67;;;;;;;5.18;86.47;95572.37;4375830;32;20197;-62
2022/12/02 02:09:09;;;;;;;5.50;5.20;;;;;;;5.05;86.33;95567.53;4381335;32;20275;-62
2022/12/02 02:11:39;;;;;;;6.50;5.60;;;;;;;5.08;86.41;95571.50;4327737;32;20376;-62
2022/12/02 02:14:07;;;;;;;5.60;4.83;;;;;;;5.17;86.65;95570.00;4359534;32;20196;-62
2022/12/02 02:16:35;;;;;;;8.50;6.13;;;;;;;5.10;86.63;95564.16;4354374;32;20355;-62
2022/12/02 02:19:02;;;;;;;5.00;4.60;;;;;;;5.09;86.71;95565.19;4343374;32;20336;-62
2022/12/02 02:21:35;;;;;;;4.83;4.43;;;;;;;5.17;86.43;95559.47;4358269;32;20323;-63
2022/12/02 02:24:01;;;;;;;5.10;4.70;;;;;;;5.20;86.77;95558.19;4325175;32;20277;-62
2022/12/02 02:26:26;;;;;;;6.00;4.13;;;;;;;5.16;86.88;95563.94;4386591;32;20314;-63
2022/12/02 02:28:52;;;;;;;6.43;5.67;;;;;;;5.05;87.69;95562.25;4375186;32;20189;-62
2022/12/02 02:31:18;;;;;;;4.33;3.50;;;;;;;5.22;87.31;95556.06;4374325;32;20185;-62
2022/12/02 02:33:44;;;;;;;6.40;5.83;;;;;;;5.21;86.98;95555.25;4350737;32;20199;-63
2022/12/02 02:36:11;;;;;;;8.37;5.43;;;;;;;5.23;87.09;95563.69;4336412;32;20226;-62
2022/12/02 02:38:38;;;;;;;4.80;3.97;;;;;;;5.36;86.72;95558.00;4342372;32;20207;-63
2022/12/02 02:41:05;;;;;;;5.53;4.37;;;;;;;5.42;86.55;95556.97;4383443;32;20368;-62
2022/12/02 02:43:32;;;;;;;5.20;4.87;;;;;;;5.51;85.98;95555.47;4368325;32;20319;-62
2022/12/02 02:46:00;;;;;;;5.37;4.97;;;;;;;5.37;86.30;95554.34;4354132;32;20282;-62
2022/12/02 02:48:26;;;;;;;8.77;5.27;;;;;;;5.50;85.74;95548.63;4376721;32;20281;-66
2022/12/02 02:50:52;;;;;;;5.40;4.97;;;;;;;5.29;86.63;95546.91;4368170;32;20295;-62
2022/12/02 02:53:21;;;;;;;3.57;3.37;;;;;;;5.38;86.51;95545.41;4368443;32;20383;-62
2022/12/02 02:55:47;;;;;;;6.00;5.50;;;;;;;5.36;86.66;95551.97;4364481;32;20281;-62
2022/12/02 02:58:17;;;;;;;5.23;4.90;;;;;;;5.26;87.34;95546.62;4351066;32;20297;-62
2022/12/02 03:01:05;;;;;;;7.63;4.63;;;;;;;5.16;87.94;95545.53;4335696;32;20205;-63
2022/12/02 03:03:37;;;;;;;7.33;6.03;;;;;;;5.16;87.52;95542.13;4353155;32;20280;-62
2022/12/02 03:06:06;;;;;;;4.50;4.03;;;;;;;5.12;87.84;95539.19;4362382;32;20273;-63
2022/12/02 03:08:34;;;;;;;7.23;6.63;;;;;;;5.26;87.15;95536.91;4340167;32;20303;-62
2022/12/02 03:11:01;;;;;;;6.17;5.67;;;;;;;5.45;86.18;95535.44;4352885;32;20294;-62
2022/12/02 03:13:30;;;;;;;4.87;4.47;;;;;;;5.41;86.39;95534.34;4373541;32;20287;-62
2022/12/02 03:15:57;;;;;;;4.57;4.17;;;;;;;5.46;85.83;95531.75;4366292;32;20264;-63
2022/12/02 03:18:24;;;;;;;12.60;7.50;;;;;;;5.13;87.21;95532.09;4390496;32;20272;-63
2022/12/02 03:20:50;;;;;;;3.43;3.23;;;;;;;5.30;86.85;95535.34;4390284;32;20350;-62
2022/12/02 03:23:19;;;;;;;4.50;4.20;;;;;;;5.46;86.20;95526.50;4390075;32;20273;-62
2022/12/02 03:25:45;;;;;;;4.97;4.67;;;;;;;5.57;85.69;95524.72;4369900;32;20374;-62
2022/12/02 03:28:12;;;;;;;8.97;5.67;;;;;;;5.64;85.45;95524.47;4387272;32;20315;-62
2022/12/02 03:30:38;;;;;;;7.37;5.53;;;;;;;5.37;86.13;95525.41;4381595;32;20185;-62
2022/12/02 03:33:04;;;;;;;5.23;4.83;;;;;;;5.15;87.20;95522.91;4367648;32;20280;-62
2022/12/02 03:35:32;;;;;;;4.43;4.23;;;;;;;5.26;87.08;95526.37;4380533;32;20260;-62
2022/12/02 03:37:59;;;;;;;5.43;4.93;;;;;;;5.41;86.84;95521.19;4377612;32;20268;-62
2022/12/02 03:40:30;;;;;;;6.37;4.93;;;;;;;5.41;86.37;95529.09;4372581;32;20274;-62
2022/12/02 03:42:56;;;;;;;5.33;4.83;;;;;;;5.31;86.25;95517.72;4332659;32;20303;-63
2022/12/02 03:45:23;;;;;;;3.87;3.60;;;;;;;5.39;85.88;95519.91;4378148;32;20269;-62
2022/12/02 03:47:48;;;;;;;9.37;5.30;;;;;;;5.33;86.08;95523.53;4385732;32;20229;-62
2022/12/02 03:50:14;;;;;;;6.23;4.93;;;;;;;5.23;86.41;95518.19;4375519;32;20276;-62
2022/12/02 03:52:42;;;;;;;6.47;5.93;;;;;;;5.24;86.57;95522.41;4372110;32;20185;-63
2022/12/02 03:55:10;;;;;;;4.63;4.30;;;;;;;5.15;87.58;95516.84;4355989;32;20176;-62
2022/12/02 03:57:36;;;;;;;5.37;4.90;;;;;;;5.20;87.70;95516.09;4371661;32;20315;-62
2022/12/02 04:00:04;;;;;;;6.57;4.60;;;;;;;5.26;87.15;95512.44;4356273;32;20300;-62
2022/12/02 04:02:29;;;;;;;7.23;5.27;;;;;;;5.40;86.14;95510.94;4363278;32;20177;-62
2022/12/02 04:04:55;;;;;;;5.37;4.77;;;;;;;5.32;86.49;95517.47;4354582;32;20309;-67
2022/12/02 04:07:21;;;;;;;4.27;3.97;;;;;;;5.46;86.39;95510.69;4352332;32;20200;-63
2022/12/02 04:09:46;;;;;;;5.57;4.90;;;;;;;5.41;86.11;95507.25;4367955;32;20287;-62
2022/12/02 04:12:13;;;;;;;6.37;5.70;;;;;;;5.43;86.62;95513.84;4369778;32;20283;-62
2022/12/02 04:14:39;;;;;;;4.83;4.50;;;;;;;5.32;86.57;95504.34;4378652;32;20232;-62
2022/12/02 04:17:05;;;;;;;4.17;3.97;;;;;;;5.50;86.04;95506.53;4352108;32;20289;-63
2022/12/02 04:19:32;;;;;;;5.87;5.37;;;;;;;5.63;85.64;95504.47;4377994;32;20259;-62
2022/12/02 04:21:58;;;;;;;4.57;4.23;;;;;;;5.79;84.54;95506.13;4373770;32;20273;-62
2022/12/02 04:24:27;;;;;;;5.40;4.10;;;;;;;5.82;84.40;95501.09;4374779;32;20272;-62
2022/12/02 04:26:54;;;;;;;4.47;3.50;;;;;;;5.69;84.38;95496.34;4344905;32;20311;-62
2022/12/02 04:29:21;;;;;;;5.07;4.67;;;;;;;5.51;85.26;95502.03;4324637;32;20295;-62
2022/12/02 04:31:49;;;;;;;4.80;4.50;;;;;;;5.40;86.00;95501.19;4337617;32;20278;-62
2022/12/02 04:34:14;;;;;;;6.53;5.93;;;;;;;5.34;85.97;95504.87;4361507;32;20371;-62
2022/12/02 04:36:40;;;;;;;7.90;6.27;;;;;;;5.26;86.97;95497.44;4373821;32;20285;-62
2022/12/02 04:39:06;;;;;;;6.10;5.60;;;;;;;5.28;86.74;95494.56;4322849;32;20220;-62
2022/12/02 04:41:32;;;;;;;5.50;5.13;;;;;;;5.25;87.09;95503.75;4334157;32;20292;-63
2022/12/02 04:43:57;;;;;;;5.00;4.60;;;;;;;5.36;86.18;95494.88;4342866;32;20189;-62
2022/12/02 04:46:23;;;;;;;6.80;5.60;;;;;;;5.29;86.53;95504.03;4371420;32;20286;-62
2022/12/02 04:48:49;;;;;;;6.90;5.20;;;;;;;5.36;86.30;95497.50;4353294;32;20260;-62
2022/12/02 04:51:16;;;;;;;4.93;4.47;;;;;;;5.40;86.09;95498.56;4352145;32;20197;-62
2022/12/02 04:53:41;;;;;;;6.37;5.83;;;;;;;5.58;85.60;95488.66;4330738;32;20312;-62
2022/12/02 04:56:07;;;;;;;7.47;5.47;;;;;;;5.43;85.60;95495.44;4350674;32;20324;-62
2022/12/02 04:58:32;;;;;;;6.83;6.23;;;;;;;5.45;85.88;95498.59;4362158;32;20185;-62
2022/12/02 05:00:57;;;;;;;7.57;6.93;;;;;;;5.41;86.27;95494.88;4361816;32;20185;-62
2022/12/02 05:03:23;;;;;;;5.83;5.43;;;;;;;5.47;85.86;95491.25;4367647;32;20185;-62
2022/12/02 05:05:48;;;;;;;5.50;5.00;;;;;;;5.69;85.15;95487.66;4351769;32;20319;-62
2022/12/02 05:08:16;;;;;;;4.70;4.37;;;;;;;5.39;85.65;95489.13;4369355;32;20186;-62
2022/12/02 05:10:42;;;;;;;6.40;5.77;;;;;;;5.21;86.77;95488.72;4358745;32;20243;-62
2022/12/02 05:13:08;;;;;;;5.77;5.27;;;;;;;5.18;87.50;95490.84;4374154;32;20370;-62
2022/12/02 05:15:35;;;;;;;11.17;6.87;;;;;;;5.07;87.50;95486.56;4375798;32;20234;-62
2022/12/02 05:18:00;;;;;;;4.83;4.00;;;;;;;5.34;86.65;95491.72;4376918;32;20295;-63
2022/12/02 05:20:26;;;;;;;4.93;4.53;;;;;;;5.23;87.03;95487.44;4374633;32;20336;-63
2022/12/02 05:22:51;;;;;;;8.70;6.27;;;;;;;5.39;85.98;95483.84;4371772;32;20193;-62
2022/12/02 05:25:16;;;;;;;3.77;3.57;;;;;;;5.41;84.69;95479.09;4355977;32;20254;-63
2022/12/02 05:27:42;;;;;;;5.20;4.87;;;;;;;5.41;84.68;95487.00;4346875;32;20185;-62
2022/12/02 05:30:11;;;;;;;4.23;4.00;;;;;;;5.25;85.27;95481.94;4344554;32;20276;-63
2022/12/02 05:32:36;;;;;;;5.30;4.63;;;;;;;5.36;85.25;95486.19;4352696;32;20222;-62
2022/12/02 05:35:03;;;;;;;5.63;5.10;;;;;;;5.55;84.18;95476.81;4370730;32;20276;-62
2022/12/02 05:37:28;;;;;;;6.53;5.93;;;;;;;5.38;84.44;95477.00;4384350;32;20215;-62
2022/12/02 05:39:55;;;;;;;7.40;5.73;;;;;;;5.28;85.12;95481.41;4356598;32;20285;-62
2022/12/02 05:42:20;;;;;;;5.93;5.50;;;;;;;5.19;85.69;95478.50;4364776;32;20222;-62
2022/12/02 05:44:47;;;;;;;5.83;5.23;;;;;;;5.10;85.89;95490.53;4353222;32;20320;-63
2022/12/02 05:47:15;;;;;;;14.43;7.40;;;;;;;5.23;86.33;95481.37;4368369;32;20259;-62
2022/12/02 05:49:43;;;;;;;6.07;5.63;;;;;;;5.34;86.08;95489.09;4356760;32;20289;-62
2022/12/02 05:52:22;;;;;;;7.20;5.67;;;;;;;5.48;85.45;95482.31;4342172;32;20277;-62
2022/12/02 05:55:06;;;;;;;6.03;5.60;;;;;;;5.42;85.85;95478.06;4383857;32;20301;-62
2022/12/02 05:57:33;;;;;;;5.60;5.13;;;;;;;5.42;85.71;95487.78;4372078;32;20385;-62
2022/12/02 06:00:13;;;;;;;7.33;6.30;;;;;;;5.24;86.21;95491.66;4351764;32;20311;-62
2022/12/02 06:02:58;;;;;;;4.47;4.17;;;;;;;5.38;86.13;95484.13;4363315;32;20287;-62
2022/12/02 06:05:47;;;;;;;5.93;5.43;;;;;;;5.32;86.77;95479.88;4354541;32;20284;-62
2022/12/02 06:08:31;;;;;;;10.30;7.07;;;;;;;5.29;86.44;95488.25;4368888;32;20273;-62
2022/12/02 06:11:33;;;;;;;6.73;4.23;;;;;;;5.19;87.10;95489.03;4333215;32;20285;-62
2022/12/02 06:14:08;;;;;;;6.30;5.90;;;;;;;5.41;86.20;95481.75;4333244;32;20285;-62
2022/12/02 06:19:56;;;;;;;5.57;5.20;;;;;;;5.48;85.90;95471.78;4340586;32;20299;-62
2022/12/02 06:22:43;;;;;;;5.30;4.90;;;;;;;5.27;86.60;95480.63;4364978;32;20277;-62
2022/12/02 06:25:24;;;;;;;5.27;4.77;;;;;;;5.46;86.17;95484.41;4352068;32;20308;-62
2022/12/02 06:27:56;;;;;;;12.33;7.77;;;;;;;5.56;85.90;95480.25;4354978;32;20311;-62
2022/12/02 06:30:21;;;;;;;7.00;6.37;;;;;;;5.68;85.53;95481.59;4339983;32;20357;-62
2022/12/02 06:32:54;;;;;;;11.67;6.37;;;;;;;5.69;85.29;95477.91;4336400;32;20282;-62
2022/12/02 06:35:31;;;;;;;4.60;4.20;;;;;;;5.66;85.62;95486.31;4348383;32;20212;-62
2022/12/02 06:37:59;;;;;;;6.40;5.80;;;;;;;5.68;85.58;95483.44;4376677;32;20280;-62
2022/12/02 06:40:31;;;;;;;5.43;5.03;;;;;;;5.50;86.02;95485.47;4306123;32;20277;-62
2022/12/02 06:43:05;;;;;;;6.63;6.10;;;;;;;5.43;86.17;95479.66;4350326;32;20293;-62
2022/12/02 06:45:33;;;;;;;6.20;5.30;;;;;;;5.41;86.62;95488.84;4368253;32;20334;-62
2022/12/02 06:48:35;;;;;;;9.20;5.93;;;;;;;5.61;86.03;95490.78;4338140;32;20316;-63
2022/12/02 06:51:18;;;;;;;7.37;5.97;;;;;;;5.41;86.47;95487.00;4338768;32;20284;-62
2022/12/02 06:53:45;;;;;;;4.67;4.37;;;;;;;5.43;87.19;95487.53;4341635;32;20287;-62
2022/12/02 06:56:20;;;;;;;6.77;5.83;;;;;;;5.39;87.46;95488.31;4346925;32;20277;-62
2022/12/02 06:59:03;;;;;;;5.50;4.93;;;;;;;5.33;87.67;95484.09;4347038;32;20369;-62
2022/12/02 07:01:37;;;;;;;13.90;5.87;;;;;;;5.33;87.74;95484.88;4366921;32;20297;-62
2022/12/02 07:04:28;;;;;;;5.47;4.90;;;;;;;5.35;87.71;95488.03;4379089;32;20288;-62
2022/12/02 07:07:00;;;;;;;6.13;5.67;;;;;;;5.49;86.19;95489.16;4371862;32;20291;-62
2022/12/02 07:09:35;;;;;;;4.50;4.13;;;;;;;5.59;86.27;95491.03;4335999;32;20299;-68
2022/12/02 07:12:01;;;;;;;5.90;5.43;;;;;;;5.67;85.57;95481.84;4357088;32;20288;-62
2022/12/02 07:14:40;;;;;;;5.63;5.23;;;;;;;5.72;85.52;95481.87;4359286;32;20341;-62
2022/12/02 07:17:30;;;;;;;6.50;5.90;;;;;;;5.53;86.24;95484.16;4370393;32;20284;-62
2022/12/02 07:20:24;;;;;;;5.63;5.23;;;;;;;5.55;86.06;95481.28;4357243;32;20288;-62
2022/12/02 07:23:00;;;;;;;10.97;5.23;;;;;;;5.31;87.13;95484.34;4373759;32;20280;-62
2022/12/02 07:25:33;;;;;;;9.63;6.23;;;;;;;5.47;86.83;95491.25;4387256;32;20310;-67
2022/12/02 07:28:02;;;;;;;7.93;4.77;;;;;;;5.40;86.72;95490.69;4382287;32;20272;-64
2022/12/02 07:30:38;;;;;;;5.47;5.03;;;;;;;5.30;86.92;95485.38;4380971;32;20300;-62
2022/12/02 07:33:03;;;;;;;4.77;4.40;;;;;;;5.40;86.22;95490.69;4355573;32;20367;-61
2022/12/02 07:35:30;;;;;;;5.10;4.70;;;;;;;5.79;94.35;95479.78;4360570;32;20277;-61
2022/12/02 07:37:57;;;;;;;9.23;5.73;;;;;;;6.30;96.09;95479.91;4370985;32;20208;-61
2022/12/02 07:40:23;;;;;;;5.03;4.73;;;;;;;6.39;94.51;95481.00;4363254;32;20354;-61
2022/12/02 07:42:50;;;;;;;6.23;5.40;;;;;;;6.98;94.05;95477.78;4331018;32;20296;-61
2022/12/02 07:45:21;;;;;;;6.57;6.13;;;;;;;7.10;93.12;95478.28;4359912;32;20184;-61
2022/12/02 07:47:47;;;;;;;13.20;5.17;;;;;;;7.32;89.75;95483.25;4372129;32;20327;-62
2022/12/02 07:50:16;;;;;;;5.87;5.17;;;;;;;7.47;88.75;95481.37;4353108;32;20337;-61
2022/12/02 07:52:41;;;;;;;7.00;6.33;;;;;;;7.88;87.02;95481.22;4365186;32;20300;-61
2022/12/02 07:55:09;;;;;;;7.27;5.17;;;;;;;7.98;84.35;95481.16;4349411;32;20285;-61
2022/12/02 07:57:37;;;;;;;5.47;5.03;;;;;;;7.73;84.22;95484.69;4361541;32;20207;-61
2022/12/02 08:00:07;;;;;;;5.40;5.00;;;;;;;7.72;85.47;95487.59;4345103;32;20307;-61
2022/12/02 08:02:34;;;;;;;8.57;5.93;;;;;;;7.80;84.02;95481.75;4365756;32;20301;-61
2022/12/02 08:04:59;;;;;;;4.70;4.47;;;;;;;7.98;82.25;95486.44;4349320;32;20285;-61
2022/12/02 08:07:32;;;;;;;6.77;6.30;;;;;;;8.28;82.65;95486.25;4337974;32;20288;-61
2022/12/02 08:09:57;;;;;;;6.33;5.63;;;;;;;8.32;83.17;95483.03;4367328;32;20199;-62
2022/12/02 08:12:24;;;;;;;7.30;6.37;;;;;;;8.33;79.92;95487.31;4352089;32;20282;-61
2022/12/02 08:14:49;;;;;;;6.63;5.60;;;;;;;8.27;79.26;95482.03;4374034;32;20181;-61
2022/12/02 08:17:16;;;;;;;7.83;7.13;;;;;;;8.22;79.39;95481.28;4334513;32;20309;-62
2022/12/02 08:19:41;;;;;;;6.90;6.33;;;;;;;7.15;79.13;95484.34;4358985;32;20200;-62
2022/12/02 08:22:08;;;;;;;7.03;6.43;;;;;;;6.69;80.79;95480.97;4357379;32;20334;-62
2022/12/02 08:24:36;;;;;;;6.50;5.73;;;;;;;6.55;82.26;95485.22;4338634;32;20215;-64
2022/12/02 08:27:02;;;;;;;6.73;6.17;;;;;;;6.20;83.00;95489.41;4372439;32;20319;-62
2022/12/02 08:29:33;;;;;;;7.10;6.30;;;;;;;6.00;84.87;95486.72;4359049;32;20368;-63
2022/12/02 08:32:00;;;;;;;4.73;4.43;;;;;;;6.24;87.94;95488.84;4352781;32;20188;-63
2022/12/02 08:34:25;;;;;;;5.70;5.23;;;;;;;6.25;85.33;95485.16;4346690;32;20342;-62
2022/12/02 08:36:52;;;;;;;5.93;5.43;;;;;;;6.17;83.96;95487.28;4331325;32;20285;-62
2022/12/02 08:39:19;;;;;;;7.17;6.47;;;;;;;6.17;84.25;95486.50;4366009;32;20297;-62
2022/12/02 08:41:47;;;;;;;5.47;4.93;;;;;;;5.97;85.18;95483.81;4378713;32;20277;-62
2022/12/02 08:44:13;;;;;;;4.27;3.97;;;;;;;5.93;84.93;95490.66;4359578;32;20332;-62
2022/12/02 08:46:38;;;;;;;6.73;5.97;;;;;;;5.78;85.63;95488.75;4376315;32;20291;-62
2022/12/02 08:49:07;;;;;;;17.20;5.33;;;;;;;5.75;85.99;95489.25;4353376;32;20285;-62
2022/12/02 08:51:34;;;;;;;6.07;5.63;;;;;;;5.57;86.59;95490.50;4370988;32;20235;-62
2022/12/02 08:54:00;;;;;;;7.57;5.77;;;;;;;5.69;86.27;95482.38;4331886;32;20300;-62
2022/12/02 08:56:27;;;;;;;8.97;5.53;;;;;;;5.86;85.71;95483.75;4343018;32;20356;-68
2022/12/02 08:58:53;;;;;;;7.30;5.57;;;;;;;5.71;85.59;95475.81;4366916;32;20276;-63
2022/12/02 09:01:18;;;;;;;6.80;6.37;;;;;;;5.76;86.22;95478.47;4369541;32;20378;-63
2022/12/02 09:03:45;;;;;;;6.70;6.20;;;;;;;5.95;85.35;95480.66;4331196;32;20265;-63
2022/12/02 09:06:12;;;;;;;4.60;4.30;;;;;;;6.17;84.50;95478.59;4333953;32;20290;-64
2022/12/02 09:08:38;;;;;;;9.13;6.00;;;;;;;5.98;84.46;95472.25;4338977;32;20296;-62
2022/12/02 09:11:04;;;;;;;5.37;4.10;;;;;;;5.92;85.28;95476.69;4346601;32;20292;-64
2022/12/02 09:13:31;;;;;;;4.83;4.47;;;;;;;6.03;85.08;95475.66;4347793;32;20348;-65
2022/12/02 09:15:56;;;;;;;8.30;4.70;;;;;;;6.04;84.26;95477.22;4324574;32;20248;-69
2022/12/02 09:18:21;;;;;;;4.57;4.17;;;;;;;6.38;82.96;95476.78;4343132;32;20288;-64
2022/12/02 09:20:48;;;;;;;6.00;4.47;;;;;;;6.37;82.58;95473.34;4365653;32;20253;-65
2022/12/02 09:23:15;;;;;;;7.43;5.37;;;;;;;6.27;83.71;95477.78;4316475;32;20281;-65
2022/12/02 09:25:40;;;;;;;8.23;6.27;;;;;;;6.01;83.87;95477.00;4338037;32;20288;-65
2022/12/02 09:28:07;;;;;;;6.10;5.70;;;;;;;5.95;84.68;95480.66;4368627;32;20280;-65
2022/12/02 09:30:35;;;;;;;5.80;5.43;;;;;;;6.00;84.65;95478.84;4353904;32;20224;-66
2022/12/02 09:33:01;;;;;;;5.07;4.67;;;;;;;6.04;84.46;95474.59;4341927;32;20288;-63
2022/12/02 09:35:28;;;;;;;6.73;6.13;;;;;;;6.08;83.78;95475.66;4340909;32;20282;-64
2022/12/02 09:37:53;;;;;;;6.30;5.80;;;;;;;6.02;84.85;95475.94;4350180;32;20276;-63
2022/12/02 09:40:22;;;;;;;5.43;4.93;;;;;;;6.02;85.54;95475.94;4386866;32;20276;-63
2022/12/02 09:42:49;;;;;;;4.43;4.03;;;;;;;6.31;83.71;95469.12;4365504;32;20333;-64
2022/12/02 09:45:17;;;;;;;5.70;5.20;;;;;;;6.52;83.44;95460.16;4364041;32;20279;-63
2022/12/02 09:47:43;;;;;;;4.43;4.03;;;;;;;6.34;83.60;95467.81;4351567;32;20324;-63
2022/12/02 09:50:13;;;;;;;5.47;4.97;;;;;;;6.30;83.61;95461.47;4349658;32;20294;-64
2022/12/02 09:52:40;;;;;;;4.97;4.67;;;;;;;6.37;83.25;95456.75;4349439;32;20274;-63
2022/12/02 09:55:13;;;;;;;4.93;4.53;;;;;;;6.40;83.34;95456.22;4362223;32;20285;-63
2022/12/02 09:57:39;;;;;;;8.83;6.27;;;;;;;6.63;83.12;95462.81;4346072;32;20281;-63
2022/12/02 10:00:13;;;;;;;5.73;4.57;;;;;;;6.89;81.68;95454.59;4307942;32;20339;-65
2022/12/02 10:02:48;;;;;;;5.77;5.27;;;;;;;6.72;82.11;95458.56;4365192;32;20218;-63
2022/12/02 10:05:24;;;;;;;6.30;5.57;;;;;;;6.54;82.50;95455.44;4368333;32;20302;-63
2022/12/02 10:07:52;;;;;;;6.17;5.77;;;;;;;6.54;82.93;95452.00;4358285;32;20281;-61
2022/12/02 10:10:24;;;;;;;4.93;4.53;;;;;;;6.72;82.35;95446.19;4348538;32;20382;-63
2022/12/02 10:12:53;;;;;;;5.90;4.57;;;;;;;6.56;82.29;95449.91;4371469;32;20342;-62
2022/12/02 10:15:42;;;;;;;5.77;5.33;;;;;;;6.51;82.85;95448.03;4364439;32;20297;-65
2022/12/02 10:18:18;;;;;;;4.60;4.30;;;;;;;6.73;82.25;95446.97;4368255;32;20284;-60
2022/12/02 10:20:45;;;;;;;5.30;4.80;;;;;;;7.00;81.05;95444.03;4359677;32;20318;-63
2022/12/02 10:23:17;;;;;;;5.67;5.27;;;;;;;6.43;82.34;95445.16;4376956;32;20284;-62
2022/12/02 10:25:47;;;;;;;4.90;4.50;;;;;;;6.57;82.44;95448.06;4381473;32;20346;-60
2022/12/02 10:28:41;;;;;;;6.47;5.87;;;;;;;6.73;81.31;95444.34;4364874;32;20335;-60
2022/12/02 10:31:23;;;;;;;9.17;4.90;;;;;;;6.59;82.07;95444.09;4368190;32;20300;-60
2022/12/02 10:34:06;;;;;;;4.93;3.77;;;;;;;6.73;81.16;95439.06;4314616;32;20342;-61
2022/12/02 10:36:41;;;;;;;5.87;5.27;;;;;;;6.41;81.51;95436.72;4363069;32;20410;-61
2022/12/02 10:39:34;;;;;;;6.17;5.63;;;;;;;6.46;81.97;95436.72;4344295;32;20343;-60
2022/12/02 10:42:02;;;;;;;5.27;4.87;;;;;;;6.77;81.60;95430.38;4365096;32;20287;-61
2022/12/02 10:44:27;;;;;;;7.00;4.67;;;;;;;6.58;82.01;95429.34;4375679;32;20318;-62
2022/12/02 10:47:11;;;;;;;4.63;4.23;;;;;;;6.40;82.62;95429.88;4375872;32;20284;-61
2022/12/02 10:49:42;;;;;;;3.50;3.30;;;;;;;6.51;82.50;95428.81;4370391;32;20184;-61
2022/12/02 10:52:10;;;;;;;4.33;4.03;;;;;;;6.52;82.67;95427.75;4350236;32;20277;-61
2022/12/02 10:54:42;;;;;;;4.60;4.30;;;;;;;6.43;83.29;95429.34;4361187;32;20340;-61
2022/12/02 10:57:12;;;;;;;7.90;5.40;;;;;;;6.32;83.65;95422.50;4369553;32;20280;-61
2022/12/02 10:59:40;;;;;;;3.87;3.67;;;;;;;6.57;82.01;95425.12;4371933;32;20344;-60
2022/12/02 11:02:18;;;;;;;5.93;5.37;;;;;;;6.69;81.69;95425.63;4385337;32;20299;-60
2022/12/02 11:04:47;;;;;;;4.90;4.47;;;;;;;6.64;81.53;95420.37;4367600;32;20281;-60
2022/12/02 11:07:23;;;;;;;7.67;5.37;;;;;;;6.54;82.34;95421.16;4365735;32;20330;-60
2022/12/02 11:09:53;;;;;;;6.43;5.77;;;;;;;6.54;80.34;95410.63;4373572;32;20271;-60
2022/12/02 11:12:51;;;;;;;9.20;5.17;;;;;;;6.45;80.72;95411.41;4333081;32;20302;-60
2022/12/02 11:15:31;;;;;;;8.37;5.80;;;;;;;6.51;80.93;95413.00;4347980;32;20371;-60
2022/12/02 11:18:02;;;;;;;6.97;4.30;;;;;;;6.53;80.86;95409.03;4342829;32;20292;-61
2022/12/02 11:20:45;;;;;;;4.50;4.03;;;;;;;6.73;79.55;95402.16;4371065;32;20273;-61
2022/12/02 11:23:19;;;;;;;6.83;6.23;;;;;;;6.46;80.67;95410.34;4351137;32;20357;-60
2022/12/02 11:25:48;;;;;;;4.77;4.40;;;;;;;6.38;81.68;95401.16;4363193;32;20283;-61
2022/12/02 11:28:19;;;;;;;5.43;4.90;;;;;;;6.12;82.06;95403.00;4384848;32;20287;-61
2022/12/02 11:30:46;;;;;;;6.90;4.97;;;;;;;6.33;82.12;95400.38;4377145;32;20364;-59
2022/12/02 11:33:44;;;;;;;3.87;3.57;;;;;;;6.32;81.83;95401.41;4370390;32;20363;-60
2022/12/02 11:36:14;;;;;;;3.53;3.23;;;;;;;6.15;82.14;95407.75;4363031;32;20291;-60
2022/12/02 11:39:04;;;;;;;5.13;4.73;;;;;;;6.19;82.09;95397.47;4365367;32;20285;-60
2022/12/02 11:41:53;;;;;;;5.53;5.07;;;;;;;6.47;80.56;95399.56;4362888;32;20333;-61
2022/12/02 11:44:28;;;;;;;6.97;4.70;;;;;;;6.22;81.36;95393.53;4370768;32;20311;-60
2022/12/02 11:47:02;;;;;;;3.93;3.63;;;;;;;6.34;81.41;95399.31;4360886;32;20303;-60
2022/12/02 11:49:34;;;;;;;4.93;4.50;;;;;;;6.37;81.62;95394.31;4349257;32;20284;-60
2022/12/02 11:52:10;;;;;;;4.40;4.00;;;;;;;6.33;80.67;95392.47;4367094;32;20289;-60
2022/12/02 11:54:38;;;;;;;4.60;4.20;;;;;;;6.46;80.92;95395.34;4331999;32;20304;-60
2022/12/02 11:57:05;;;;;;;3.90;3.67;;;;;;;6.46;81.03;95395.34;4376942;32;20277;-60
2022/12/02 11:59:35;;;;;;;4.03;3.83;;;;;;;6.41;81.29;95390.09;4373744;32;20375;-60